sensor_id;sensor_type;location;lat;lon;timestamp;pressure;altitude;pressure_sealevel;temperature;humidity
37904;BME280;23738;50.422;18.758;2024-02-26T00:00:38;97515.07;;;6.78;77.86
37904;BME280;23738;50.422;18.758;2024-02-26T00:03:08;97512.71;;;6.76;77.67
37904;BME280;23738;50.422;18.758;2024-02-26T00:05:38;97510.73;;;6.74;77.68
37904;BME280;23738;50.422;18.758;2024-02-26T00:08:08;97510.92;;;6.72;77.72
37904;BME280;23738;50.422;18.758;2024-02-26T00:10:38;97509.07;;;6.69;77.58
37904;BME280;23738;50.422;18.758;2024-02-26T00:13:07;97508.90;;;6.65;77.49
37904;BME280;23738;50.422;18.758;2024-02-26T00:15:37;97510.23;;;6.60;77.61
37904;BME280;23738;50.422;18.758;2024-02-26T00:18:07;97508.52;;;6.54;77.56
37904;BME280;23738;50.422;18.758;2024-02-26T00:20:36;97509.66;;;6.48;77.17
37904;BME280;23738;50.422;18.758;2024-02-26T00:23:08;97507.84;;;6.42;77.65
37904;BME280;23738;50.422;18.758;2024-02-26T00:25:37;97512.66;;;6.36;77.50
37904;BME280;23738;50.422;18.758;2024-02-26T00:28:07;97513.98;;;6.31;77.13
37904;BME280;23738;50.422;18.758;2024-02-26T00:30:38;97511.92;;;6.29;77.68
37904;BME280;23738;50.422;18.758;2024-02-26T00:33:07;97514.37;;;6.27;77.38
37904;BME280;23738;50.422;18.758;2024-02-26T00:35:37;97512.63;;;6.26;77.29
37904;BME280;23738;50.422;18.758;2024-02-26T00:38:06;97514.52;;;6.22;77.34
37904;BME280;23738;50.422;18.758;2024-02-26T00:40:36;97511.41;;;6.16;77.49
37904;BME280;23738;50.422;18.758;2024-02-26T00:43:06;97518.91;;;6.10;77.54
37904;BME280;23738;50.422;18.758;2024-02-26T00:45:35;97523.61;;;6.05;77.74
37904;BME280;23738;50.422;18.758;2024-02-26T00:48:07;97524.55;;;5.99;77.65
37904;BME280;23738;50.422;18.758;2024-02-26T00:50:36;97523.90;;;5.93;77.23
37904;BME280;23738;50.422;18.758;2024-02-26T00:53:06;97521.55;;;5.89;77.75
37904;BME280;23738;50.422;18.758;2024-02-26T00:55:36;97520.36;;;5.85;77.51
37904;BME280;23738;50.422;18.758;2024-02-26T00:58:06;97518.86;;;5.85;77.55
37904;BME280;23738;50.422;18.758;2024-02-26T01:00:36;97518.34;;;5.85;77.74
37904;BME280;23738;50.422;18.758;2024-02-26T01:03:06;97519.27;;;5.86;77.66
37904;BME280;23738;50.422;18.758;2024-02-26T01:05:35;97518.66;;;5.84;77.95
37904;BME280;23738;50.422;18.758;2024-02-26T01:08:07;97518.50;;;5.81;78.05
37904;BME280;23738;50.422;18.758;2024-02-26T01:10:36;97518.65;;;5.80;77.64
37904;BME280;23738;50.422;18.758;2024-02-26T01:13:06;97518.73;;;5.75;77.95
37904;BME280;23738;50.422;18.758;2024-02-26T01:15:38;97514.30;;;5.68;78.02
37904;BME280;23738;50.422;18.758;2024-02-26T01:18:07;97511.23;;;5.64;77.82
37904;BME280;23738;50.422;18.758;2024-02-26T01:20:37;97512.55;;;5.60;77.73
37904;BME280;23738;50.422;18.758;2024-02-26T01:23:08;97512.96;;;5.57;77.82
37904;BME280;23738;50.422;18.758;2024-02-26T01:25:38;97512.69;;;5.55;77.92
37904;BME280;23738;50.422;18.758;2024-02-26T01:28:08;97510.77;;;5.54;78.30
37904;BME280;23738;50.422;18.758;2024-02-26T01:30:38;97508.31;;;5.57;78.22
37904;BME280;23738;50.422;18.758;2024-02-26T01:33:08;97508.57;;;5.57;78.51
37904;BME280;23738;50.422;18.758;2024-02-26T01:35:37;97505.21;;;5.56;78.14
37904;BME280;23738;50.422;18.758;2024-02-26T01:38:07;97505.74;;;5.54;78.30
37904;BME280;23738;50.422;18.758;2024-02-26T01:40:37;97508.50;;;5.48;78.17
37904;BME280;23738;50.422;18.758;2024-02-26T01:43:07;97505.64;;;5.42;78.20
37904;BME280;23738;50.422;18.758;2024-02-26T01:45:36;97505.17;;;5.33;78.36
37904;BME280;23738;50.422;18.758;2024-02-26T01:48:08;97501.31;;;5.29;78.27
37904;BME280;23738;50.422;18.758;2024-02-26T01:50:39;97501.23;;;5.22;78.26
37904;BME280;23738;50.422;18.758;2024-02-26T01:53:11;97503.02;;;5.18;78.18
37904;BME280;23738;50.422;18.758;2024-02-26T01:55:41;97505.63;;;5.14;78.13
37904;BME280;23738;50.422;18.758;2024-02-26T01:58:12;97506.73;;;5.11;78.30
37904;BME280;23738;50.422;18.758;2024-02-26T02:03:50;97506.23;;;5.02;78.38
37904;BME280;23738;50.422;18.758;2024-02-26T02:07:20;97505.64;;;4.96;78.13
37904;BME280;23738;50.422;18.758;2024-02-26T02:14:29;97508.63;;;4.77;78.28
37904;BME280;23738;50.422;18.758;2024-02-26T02:17:56;97511.84;;;4.68;78.38
37904;BME280;23738;50.422;18.758;2024-02-26T02:21:26;97513.89;;;4.64;78.15
37904;BME280;23738;50.422;18.758;2024-02-26T02:24:55;97509.78;;;4.62;78.06
37904;BME280;23738;50.422;18.758;2024-02-26T02:28:26;97511.45;;;4.57;78.34
37904;BME280;23738;50.422;18.758;2024-02-26T02:31:50;97516.60;;;4.49;78.31
37904;BME280;23738;50.422;18.758;2024-02-26T02:34:20;97512.92;;;4.44;78.48
37904;BME280;23738;50.422;18.758;2024-02-26T02:36:53;97512.19;;;4.39;78.51
37904;BME280;23738;50.422;18.758;2024-02-26T02:39:23;97506.38;;;4.37;78.73
37904;BME280;23738;50.422;18.758;2024-02-26T02:41:53;97505.75;;;4.32;78.73
37904;BME280;23738;50.422;18.758;2024-02-26T02:44:22;97500.11;;;4.31;78.64
37904;BME280;23738;50.422;18.758;2024-02-26T02:46:52;97494.55;;;4.30;78.68
37904;BME280;23738;50.422;18.758;2024-02-26T02:49:21;97495.00;;;4.32;78.97
37904;BME280;23738;50.422;18.758;2024-02-26T02:51:52;97492.66;;;4.34;79.04
37904;BME280;23738;50.422;18.758;2024-02-26T02:54:22;97489.61;;;4.34;79.11
37904;BME280;23738;50.422;18.758;2024-02-26T02:56:52;97486.89;;;4.28;79.00
37904;BME280;23738;50.422;18.758;2024-02-26T02:59:22;97488.50;;;4.25;78.98
37904;BME280;23738;50.422;18.758;2024-02-26T03:01:51;97488.97;;;4.12;79.00
37904;BME280;23738;50.422;18.758;2024-02-26T03:04:21;97492.09;;;4.08;79.21
37904;BME280;23738;50.422;18.758;2024-02-26T03:06:50;97492.58;;;4.04;79.18
37904;BME280;23738;50.422;18.758;2024-02-26T03:09:20;97487.80;;;3.92;78.83
37904;BME280;23738;50.422;18.758;2024-02-26T03:11:50;97490.66;;;3.90;79.00
37904;BME280;23738;50.422;18.758;2024-02-26T03:14:20;97493.05;;;3.92;79.06
37904;BME280;23738;50.422;18.758;2024-02-26T03:16:50;97490.85;;;3.92;79.27
37904;BME280;23738;50.422;18.758;2024-02-26T03:19:22;97487.52;;;3.91;79.32
37904;BME280;23738;50.422;18.758;2024-02-26T03:21:52;97485.92;;;3.90;79.48
37904;BME280;23738;50.422;18.758;2024-02-26T03:24:21;97486.23;;;3.86;79.30
37904;BME280;23738;50.422;18.758;2024-02-26T03:26:51;97486.05;;;3.80;79.50
37904;BME280;23738;50.422;18.758;2024-02-26T03:29:21;97481.51;;;3.74;79.57
37904;BME280;23738;50.422;18.758;2024-02-26T03:31:50;97481.30;;;3.73;79.40
37904;BME280;23738;50.422;18.758;2024-02-26T03:34:20;97479.20;;;3.69;79.36
37904;BME280;23738;50.422;18.758;2024-02-26T03:36:50;97479.42;;;3.64;79.39
37904;BME280;23738;50.422;18.758;2024-02-26T03:39:19;97481.75;;;3.62;79.53
37904;BME280;23738;50.422;18.758;2024-02-26T03:41:50;97475.34;;;3.61;79.65
37904;BME280;23738;50.422;18.758;2024-02-26T03:44:20;97478.26;;;3.62;79.70
37904;BME280;23738;50.422;18.758;2024-02-26T03:46:50;97474.42;;;3.61;79.83
37904;BME280;23738;50.422;18.758;2024-02-26T03:49:20;97467.88;;;3.57;79.90
37904;BME280;23738;50.422;18.758;2024-02-26T03:51:50;97473.23;;;3.54;80.10
37904;BME280;23738;50.422;18.758;2024-02-26T03:54:19;97474.05;;;3.52;80.14
37904;BME280;23738;50.422;18.758;2024-02-26T03:56:49;97470.51;;;3.50;80.12
37904;BME280;23738;50.422;18.758;2024-02-26T03:59:18;97467.75;;;3.48;80.15
37904;BME280;23738;50.422;18.758;2024-02-26T04:01:50;97461.03;;;3.48;79.93
37904;BME280;23738;50.422;18.758;2024-02-26T04:04:19;97458.56;;;3.46;80.18
37904;BME280;23738;50.422;18.758;2024-02-26T04:06:49;97459.50;;;3.50;80.20
37904;BME280;23738;50.422;18.758;2024-02-26T04:09:19;97460.55;;;3.48;80.21
37904;BME280;23738;50.422;18.758;2024-02-26T04:11:48;97462.84;;;3.45;80.22
37904;BME280;23738;50.422;18.758;2024-02-26T04:14:29;97463.98;;;3.40;80.26
37904;BME280;23738;50.422;18.758;2024-02-26T04:16:58;97460.63;;;3.36;80.27
37904;BME280;23738;50.422;18.758;2024-02-26T04:19:28;97460.95;;;3.28;80.27
37904;BME280;23738;50.422;18.758;2024-02-26T04:21:58;97453.59;;;3.16;80.27
37904;BME280;23738;50.422;18.758;2024-02-26T04:24:28;97450.70;;;3.08;80.04
37904;BME280;23738;50.422;18.758;2024-02-26T04:26:58;97449.63;;;3.09;80.19
37904;BME280;23738;50.422;18.758;2024-02-26T04:29:27;97456.76;;;3.13;80.45
37904;BME280;23738;50.422;18.758;2024-02-26T04:31:57;97452.66;;;3.14;80.38
37904;BME280;23738;50.422;18.758;2024-02-26T04:34:27;97448.30;;;3.14;80.60
37904;BME280;23738;50.422;18.758;2024-02-26T04:36:56;97445.61;;;3.16;80.83
37904;BME280;23738;50.422;18.758;2024-02-26T04:39:26;97448.55;;;3.19;80.92
37904;BME280;23738;50.422;18.758;2024-02-26T04:41:56;97443.89;;;3.16;80.85
37904;BME280;23738;50.422;18.758;2024-02-26T04:44:26;97446.70;;;3.17;80.89
37904;BME280;23738;50.422;18.758;2024-02-26T04:46:55;97454.92;;;3.19;81.08
37904;BME280;23738;50.422;18.758;2024-02-26T04:49:25;97458.34;;;3.20;80.89
37904;BME280;23738;50.422;18.758;2024-02-26T04:51:54;97456.38;;;3.22;81.19
37904;BME280;23738;50.422;18.758;2024-02-26T04:54:24;97457.91;;;3.23;80.93
37904;BME280;23738;50.422;18.758;2024-02-26T04:56:54;97457.63;;;3.19;81.23
37904;BME280;23738;50.422;18.758;2024-02-26T04:59:44;97458.88;;;3.17;81.21
37904;BME280;23738;50.422;18.758;2024-02-26T05:03:13;97458.16;;;3.13;81.19
37904;BME280;23738;50.422;18.758;2024-02-26T05:07:01;97459.59;;;3.08;81.12
37904;BME280;23738;50.422;18.758;2024-02-26T05:10:30;97457.81;;;3.03;80.96
37904;BME280;23738;50.422;18.758;2024-02-26T05:14:10;97460.53;;;3.01;81.27
37904;BME280;23738;50.422;18.758;2024-02-26T05:17:41;97466.17;;;3.04;81.09
37904;BME280;23738;50.422;18.758;2024-02-26T05:20:48;97465.70;;;3.06;81.59
37904;BME280;23738;50.422;18.758;2024-02-26T05:23:17;97465.82;;;3.07;81.56
37904;BME280;23738;50.422;18.758;2024-02-26T05:25:48;97470.92;;;3.04;81.63
37904;BME280;23738;50.422;18.758;2024-02-26T05:28:18;97472.10;;;3.02;81.52
37904;BME280;23738;50.422;18.758;2024-02-26T05:30:49;97468.89;;;2.95;81.50
37904;BME280;23738;50.422;18.758;2024-02-26T05:33:18;97469.59;;;2.91;81.71
37904;BME280;23738;50.422;18.758;2024-02-26T05:35:48;97472.45;;;2.92;81.54
37904;BME280;23738;50.422;18.758;2024-02-26T05:38:18;97468.56;;;2.95;81.62
37904;BME280;23738;50.422;18.758;2024-02-26T05:40:47;97472.59;;;2.95;81.47
37904;BME280;23738;50.422;18.758;2024-02-26T05:43:20;97470.41;;;2.97;82.01
37904;BME280;23738;50.422;18.758;2024-02-26T05:45:50;97474.32;;;3.04;82.07
37904;BME280;23738;50.422;18.758;2024-02-26T05:48:20;97474.19;;;3.05;82.27
37904;BME280;23738;50.422;18.758;2024-02-26T05:50:50;97473.89;;;3.05;82.06
37904;BME280;23738;50.422;18.758;2024-02-26T05:53:19;97474.76;;;3.03;82.16
37904;BME280;23738;50.422;18.758;2024-02-26T05:55:49;97472.70;;;3.00;82.20
37904;BME280;23738;50.422;18.758;2024-02-26T05:58:18;97477.55;;;3.05;81.91
37904;BME280;23738;50.422;18.758;2024-02-26T06:00:48;97484.13;;;3.09;82.12
37904;BME280;23738;50.422;18.758;2024-02-26T06:03:18;97484.55;;;3.17;82.50
37904;BME280;23738;50.422;18.758;2024-02-26T06:05:47;97485.83;;;3.26;82.50
37904;BME280;23738;50.422;18.758;2024-02-26T06:08:17;97483.71;;;3.32;82.55
37904;BME280;23738;50.422;18.758;2024-02-26T06:10:47;97486.72;;;3.38;82.80
37904;BME280;23738;50.422;18.758;2024-02-26T06:13:17;97486.18;;;3.45;82.85
37904;BME280;23738;50.422;18.758;2024-02-26T06:15:47;97486.23;;;3.55;83.12
37904;BME280;23738;50.422;18.758;2024-02-26T06:18:16;97486.08;;;3.67;83.07
37904;BME280;23738;50.422;18.758;2024-02-26T06:20:46;97489.88;;;3.82;83.27
37904;BME280;23738;50.422;18.758;2024-02-26T06:23:16;97491.24;;;3.98;83.55
37904;BME280;23738;50.422;18.758;2024-02-26T06:25:46;97494.23;;;4.12;83.68
37904;BME280;23738;50.422;18.758;2024-02-26T06:28:16;97493.70;;;4.27;83.82
37904;BME280;23738;50.422;18.758;2024-02-26T06:30:45;97498.64;;;4.40;83.97
37904;BME280;23738;50.422;18.758;2024-02-26T06:33:15;97501.10;;;4.53;84.04
37904;BME280;23738;50.422;18.758;2024-02-26T06:35:45;97503.25;;;4.61;84.04
37904;BME280;23738;50.422;18.758;2024-02-26T06:38:23;97507.24;;;4.67;84.13
37904;BME280;23738;50.422;18.758;2024-02-26T06:40:53;97504.83;;;4.76;84.21
37904;BME280;23738;50.422;18.758;2024-02-26T06:43:23;97508.54;;;4.89;84.26
37904;BME280;23738;50.422;18.758;2024-02-26T06:45:52;97510.00;;;5.06;84.30
37904;BME280;23738;50.422;18.758;2024-02-26T06:48:22;97512.02;;;5.20;84.35
37904;BME280;23738;50.422;18.758;2024-02-26T06:50:52;97515.61;;;5.33;84.47
37904;BME280;23738;50.422;18.758;2024-02-26T06:53:28;97515.82;;;5.47;84.77
37904;BME280;23738;50.422;18.758;2024-02-26T06:55:58;97515.06;;;5.60;84.47
37904;BME280;23738;50.422;18.758;2024-02-26T06:58:27;97509.45;;;5.72;84.67
37904;BME280;23738;50.422;18.758;2024-02-26T07:00:59;97510.96;;;5.88;84.69
37904;BME280;23738;50.422;18.758;2024-02-26T07:03:29;97505.80;;;6.01;84.66
37904;BME280;23738;50.422;18.758;2024-02-26T07:05:58;97508.66;;;6.13;85.00
37904;BME280;23738;50.422;18.758;2024-02-26T07:08:28;97508.70;;;6.32;84.96
37904;BME280;23738;50.422;18.758;2024-02-26T07:10:57;97508.09;;;6.48;85.11
37904;BME280;23738;50.422;18.758;2024-02-26T07:13:27;97505.14;;;6.66;85.12
37904;BME280;23738;50.422;18.758;2024-02-26T07:15:57;97503.03;;;6.75;84.82
37904;BME280;23738;50.422;18.758;2024-02-26T07:18:26;97499.35;;;6.76;84.77
37904;BME280;23738;50.422;18.758;2024-02-26T07:20:56;97498.67;;;6.77;84.94
37904;BME280;23738;50.422;18.758;2024-02-26T07:23:26;97497.17;;;6.78;84.71
37904;BME280;23738;50.422;18.758;2024-02-26T07:25:55;97494.55;;;6.82;84.72
37904;BME280;23738;50.422;18.758;2024-02-26T07:28:25;97499.45;;;6.90;84.73
37904;BME280;23738;50.422;18.758;2024-02-26T07:30:55;97495.77;;;7.10;84.87
37904;BME280;23738;50.422;18.758;2024-02-26T07:33:42;97497.27;;;7.34;85.21
37904;BME280;23738;50.422;18.758;2024-02-26T07:36:12;97495.30;;;7.55;84.66
37904;BME280;23738;50.422;18.758;2024-02-26T07:38:42;97494.30;;;7.60;84.56
37904;BME280;23738;50.422;18.758;2024-02-26T07:41:31;97493.89;;;7.60;84.58
37904;BME280;23738;50.422;18.758;2024-02-26T07:44:58;97498.95;;;7.64;84.37
37904;BME280;23738;50.422;18.758;2024-02-26T07:48:26;97503.95;;;7.75;84.43
37904;BME280;23738;50.422;18.758;2024-02-26T08:05:28;97509.48;;;8.84;84.63
37904;BME280;23738;50.422;18.758;2024-02-26T08:08:17;97511.95;;;9.06;84.88
37904;BME280;23738;50.422;18.758;2024-02-26T08:10:47;97507.24;;;9.31;84.83
37904;BME280;23738;50.422;18.758;2024-02-26T08:13:37;97508.70;;;9.59;84.45
37904;BME280;23738;50.422;18.758;2024-02-26T08:17:04;97504.96;;;9.87;84.21
37904;BME280;23738;50.422;18.758;2024-02-26T08:30:07;97512.70;;;10.63;82.75
37904;BME280;23738;50.422;18.758;2024-02-26T08:32:38;97513.63;;;10.72;82.69
37904;BME280;23738;50.422;18.758;2024-02-26T08:35:08;97513.02;;;10.85;82.42
37904;BME280;23738;50.422;18.758;2024-02-26T08:37:38;97514.91;;;10.97;81.97
37904;BME280;23738;50.422;18.758;2024-02-26T08:40:09;97514.88;;;11.07;82.42
37904;BME280;23738;50.422;18.758;2024-02-26T08:42:39;97510.86;;;11.22;82.24
37904;BME280;23738;50.422;18.758;2024-02-26T08:45:11;97513.33;;;11.28;81.64
37904;BME280;23738;50.422;18.758;2024-02-26T08:47:40;97504.77;;;11.32;80.46
37904;BME280;23738;50.422;18.758;2024-02-26T08:50:10;97500.07;;;11.30;80.82
37904;BME280;23738;50.422;18.758;2024-02-26T08:52:40;97504.06;;;11.39;80.77
37904;BME280;23738;50.422;18.758;2024-02-26T08:55:10;97508.65;;;11.54;81.32
37904;BME280;23738;50.422;18.758;2024-02-26T08:57:41;97504.75;;;11.71;80.89
37904;BME280;23738;50.422;18.758;2024-02-26T09:00:12;97503.03;;;11.86;81.20
37904;BME280;23738;50.422;18.758;2024-02-26T09:02:43;97499.57;;;11.97;80.81
37904;BME280;23738;50.422;18.758;2024-02-26T09:05:13;97502.96;;;12.10;79.79
37904;BME280;23738;50.422;18.758;2024-02-26T09:07:43;97505.38;;;12.24;79.61
37904;BME280;23738;50.422;18.758;2024-02-26T09:10:13;97506.33;;;12.38;79.42
37904;BME280;23738;50.422;18.758;2024-02-26T09:12:43;97501.64;;;12.47;79.51
37904;BME280;23738;50.422;18.758;2024-02-26T09:15:12;97499.38;;;12.65;79.45
37904;BME280;23738;50.422;18.758;2024-02-26T09:17:42;97499.26;;;12.85;79.30
37904;BME280;23738;50.422;18.758;2024-02-26T09:20:14;97487.77;;;13.02;79.05
37904;BME280;23738;50.422;18.758;2024-02-26T09:22:44;97494.92;;;13.25;78.81
37904;BME280;23738;50.422;18.758;2024-02-26T09:25:14;97487.71;;;13.43;78.79
37904;BME280;23738;50.422;18.758;2024-02-26T09:27:44;97493.94;;;13.61;77.92
37904;BME280;23738;50.422;18.758;2024-02-26T09:30:14;97491.77;;;13.77;77.99
37904;BME280;23738;50.422;18.758;2024-02-26T09:32:47;97485.88;;;13.89;77.13
37904;BME280;23738;50.422;18.758;2024-02-26T09:35:17;97493.91;;;14.03;77.13
37904;BME280;23738;50.422;18.758;2024-02-26T09:37:47;97488.81;;;14.20;77.48
37904;BME280;23738;50.422;18.758;2024-02-26T09:40:18;97489.85;;;14.35;75.01
37904;BME280;23738;50.422;18.758;2024-02-26T09:42:48;97497.01;;;14.46;76.03
37904;BME280;23738;50.422;18.758;2024-02-26T09:45:22;97494.48;;;14.63;76.68
37904;BME280;23738;50.422;18.758;2024-02-26T09:47:56;97499.64;;;14.83;75.92
37904;BME280;23738;50.422;18.758;2024-02-26T09:50:26;97498.77;;;14.98;75.27
37904;BME280;23738;50.422;18.758;2024-02-26T09:52:58;97501.20;;;15.15;76.20
37904;BME280;23738;50.422;18.758;2024-02-26T09:55:30;97497.90;;;15.28;74.44
37904;BME280;23738;50.422;18.758;2024-02-26T09:58:00;97494.39;;;15.35;73.61
37904;BME280;23738;50.422;18.758;2024-02-26T10:00:32;97496.17;;;15.39;74.01
37904;BME280;23738;50.422;18.758;2024-02-26T10:03:09;97497.52;;;15.40;73.28
37904;BME280;23738;50.422;18.758;2024-02-26T10:05:44;97491.86;;;15.39;72.34
37904;BME280;23738;50.422;18.758;2024-02-26T10:08:15;97495.80;;;15.45;72.51
37904;BME280;23738;50.422;18.758;2024-02-26T10:10:51;97496.94;;;15.61;72.46
37904;BME280;23738;50.422;18.758;2024-02-26T10:13:21;97496.35;;;15.68;71.71
37904;BME280;23738;50.422;18.758;2024-02-26T10:15:51;97492.06;;;15.71;72.18
37904;BME280;23738;50.422;18.758;2024-02-26T10:18:21;97487.15;;;15.77;72.38
37904;BME280;23738;50.422;18.758;2024-02-26T10:21:02;97491.16;;;15.88;71.82
37904;BME280;23738;50.422;18.758;2024-02-26T10:23:32;97491.54;;;15.91;72.41
37904;BME280;23738;50.422;18.758;2024-02-26T10:26:02;97485.41;;;15.81;71.82
37904;BME280;23738;50.422;18.758;2024-02-26T10:28:32;97491.09;;;15.97;70.60
37904;BME280;23738;50.422;18.758;2024-02-26T10:31:02;97489.98;;;16.21;71.63
37904;BME280;23738;50.422;18.758;2024-02-26T10:33:34;97492.37;;;16.34;69.34
37904;BME280;23738;50.422;18.758;2024-02-26T10:36:05;97489.95;;;16.45;70.58
37904;BME280;23738;50.422;18.758;2024-02-26T10:38:37;97493.80;;;16.45;69.80
37904;BME280;23738;50.422;18.758;2024-02-26T10:41:09;97493.20;;;16.26;69.67
37904;BME280;23738;50.422;18.758;2024-02-26T10:43:43;97484.54;;;16.09;70.08
37904;BME280;23738;50.422;18.758;2024-02-26T10:46:13;97481.38;;;16.05;69.66
37904;BME280;23738;50.422;18.758;2024-02-26T10:48:51;97479.20;;;15.94;69.55
37904;BME280;23738;50.422;18.758;2024-02-26T10:51:25;97479.87;;;15.88;70.03
37904;BME280;23738;50.422;18.758;2024-02-26T10:53:57;97475.55;;;15.80;68.80
37904;BME280;23738;50.422;18.758;2024-02-26T10:56:28;97469.54;;;15.72;69.00
37904;BME280;23738;50.422;18.758;2024-02-26T10:59:00;97479.08;;;15.72;69.11
37904;BME280;23738;50.422;18.758;2024-02-26T11:01:30;97478.17;;;15.65;68.82
37904;BME280;23738;50.422;18.758;2024-02-26T11:04:01;97477.23;;;15.57;68.73
37904;BME280;23738;50.422;18.758;2024-02-26T11:06:32;97476.92;;;15.48;67.75
37904;BME280;23738;50.422;18.758;2024-02-26T11:09:23;97476.07;;;15.40;68.51
37904;BME280;23738;50.422;18.758;2024-02-26T11:12:34;97470.33;;;15.35;67.95
37904;BME280;23738;50.422;18.758;2024-02-26T11:15:07;97475.27;;;15.32;68.26
37904;BME280;23738;50.422;18.758;2024-02-26T11:17:38;97471.11;;;15.30;67.68
37904;BME280;23738;50.422;18.758;2024-02-26T11:20:11;97471.70;;;15.33;67.85
37904;BME280;23738;50.422;18.758;2024-02-26T11:22:42;97464.95;;;15.42;68.25
37904;BME280;23738;50.422;18.758;2024-02-26T11:25:12;97463.64;;;15.58;67.95
37904;BME280;23738;50.422;18.758;2024-02-26T11:27:46;97465.84;;;15.78;67.74
37904;BME280;23738;50.422;18.758;2024-02-26T11:30:18;97470.48;;;15.86;67.80
37904;BME280;23738;50.422;18.758;2024-02-26T11:32:49;97465.94;;;15.84;67.76
37904;BME280;23738;50.422;18.758;2024-02-26T11:35:20;97468.44;;;15.84;66.91
37904;BME280;23738;50.422;18.758;2024-02-26T11:37:57;97473.90;;;15.87;67.15
37904;BME280;23738;50.422;18.758;2024-02-26T11:40:29;97470.77;;;15.88;66.71
37904;BME280;23738;50.422;18.758;2024-02-26T11:43:00;97468.17;;;15.96;66.83
37904;BME280;23738;50.422;18.758;2024-02-26T11:45:51;97466.63;;;16.06;66.33
37904;BME280;23738;50.422;18.758;2024-02-26T11:48:30;97462.40;;;16.11;66.60
37904;BME280;23738;50.422;18.758;2024-02-26T11:51:00;97468.45;;;16.10;65.95
37904;BME280;23738;50.422;18.758;2024-02-26T11:53:32;97465.34;;;16.02;65.95
37904;BME280;23738;50.422;18.758;2024-02-26T11:56:23;97461.14;;;15.93;64.99
37904;BME280;23738;50.422;18.758;2024-02-26T11:59:03;97462.13;;;15.91;64.87
37904;BME280;23738;50.422;18.758;2024-02-26T12:01:46;97465.65;;;16.00;65.56
37904;BME280;23738;50.422;18.758;2024-02-26T12:04:24;97464.78;;;15.99;65.67
37904;BME280;23738;50.422;18.758;2024-02-26T12:06:56;97461.47;;;16.09;65.34
37904;BME280;23738;50.422;18.758;2024-02-26T12:09:35;97463.19;;;16.13;65.63
37904;BME280;23738;50.422;18.758;2024-02-26T12:12:08;97459.92;;;16.08;65.90
37904;BME280;23738;50.422;18.758;2024-02-26T12:14:41;97460.09;;;16.08;64.87
37904;BME280;23738;50.422;18.758;2024-02-26T12:17:22;97458.21;;;16.09;65.56
37904;BME280;23738;50.422;18.758;2024-02-26T12:19:53;97459.09;;;16.12;65.42
37904;BME280;23738;50.422;18.758;2024-02-26T12:22:25;97458.70;;;16.09;64.56
37904;BME280;23738;50.422;18.758;2024-02-26T12:25:01;97458.45;;;16.12;65.01
37904;BME280;23738;50.422;18.758;2024-02-26T12:27:31;97453.59;;;16.08;64.59
37904;BME280;23738;50.422;18.758;2024-02-26T12:30:01;97450.91;;;16.02;64.94
37904;BME280;23738;50.422;18.758;2024-02-26T12:32:32;97450.36;;;16.01;65.08
37904;BME280;23738;50.422;18.758;2024-02-26T12:35:02;97451.97;;;16.05;65.24
37904;BME280;23738;50.422;18.758;2024-02-26T12:37:32;97447.92;;;16.05;64.36
37904;BME280;23738;50.422;18.758;2024-02-26T12:40:05;97448.39;;;16.00;64.98
37904;BME280;23738;50.422;18.758;2024-02-26T12:42:38;97451.67;;;15.98;64.68
37904;BME280;23738;50.422;18.758;2024-02-26T12:45:10;97452.25;;;15.95;63.68
37904;BME280;23738;50.422;18.758;2024-02-26T12:47:40;97456.36;;;15.95;64.40
37904;BME280;23738;50.422;18.758;2024-02-26T12:50:11;97447.27;;;15.91;64.21
37904;BME280;23738;50.422;18.758;2024-02-26T12:52:46;97450.77;;;15.91;64.24
37904;BME280;23738;50.422;18.758;2024-02-26T12:55:19;97451.10;;;15.88;63.85
37904;BME280;23738;50.422;18.758;2024-02-26T12:57:50;97456.75;;;15.87;64.30
37904;BME280;23738;50.422;18.758;2024-02-26T13:00:23;97460.63;;;15.90;64.08
37904;BME280;23738;50.422;18.758;2024-02-26T13:02:55;97455.27;;;15.92;63.81
37904;BME280;23738;50.422;18.758;2024-02-26T13:05:25;97457.14;;;15.93;63.80
37904;BME280;23738;50.422;18.758;2024-02-26T13:07:57;97459.80;;;15.93;64.01
37904;BME280;23738;50.422;18.758;2024-02-26T13:10:27;97455.13;;;15.96;64.14
37904;BME280;23738;50.422;18.758;2024-02-26T13:12:57;97454.33;;;16.08;63.60
37904;BME280;23738;50.422;18.758;2024-02-26T13:15:27;97453.77;;;16.12;63.74
37904;BME280;23738;50.422;18.758;2024-02-26T13:17:57;97450.47;;;16.02;63.01
37904;BME280;23738;50.422;18.758;2024-02-26T13:20:30;97456.83;;;15.93;62.83
37904;BME280;23738;50.422;18.758;2024-02-26T13:23:03;97454.48;;;15.82;63.19
37904;BME280;23738;50.422;18.758;2024-02-26T13:25:40;97454.83;;;15.78;63.76
37904;BME280;23738;50.422;18.758;2024-02-26T13:28:15;97452.89;;;15.74;63.59
37904;BME280;23738;50.422;18.758;2024-02-26T13:30:51;97449.70;;;15.66;62.85
37904;BME280;23738;50.422;18.758;2024-02-26T13:33:22;97459.23;;;15.57;63.46
37904;BME280;23738;50.422;18.758;2024-02-26T13:35:54;97454.66;;;15.47;63.33
37904;BME280;23738;50.422;18.758;2024-02-26T13:38:53;97449.32;;;15.35;63.62
37904;BME280;23738;50.422;18.758;2024-02-26T13:41:23;97450.00;;;15.34;63.12
37904;BME280;23738;50.422;18.758;2024-02-26T13:43:52;97446.40;;;15.21;63.43
37904;BME280;23738;50.422;18.758;2024-02-26T13:46:22;97448.27;;;15.17;63.59
37904;BME280;23738;50.422;18.758;2024-02-26T13:48:52;97451.84;;;15.16;63.85
37904;BME280;23738;50.422;18.758;2024-02-26T13:51:23;97455.34;;;15.14;64.02
37904;BME280;23738;50.422;18.758;2024-02-26T13:53:52;97458.18;;;15.12;63.73
37904;BME280;23738;50.422;18.758;2024-02-26T13:56:22;97461.41;;;15.08;63.87
37904;BME280;23738;50.422;18.758;2024-02-26T13:58:52;97458.55;;;15.04;64.38
37904;BME280;23738;50.422;18.758;2024-02-26T14:01:22;97457.52;;;15.01;63.93
37904;BME280;23738;50.422;18.758;2024-02-26T14:03:51;97456.91;;;14.98;64.12